Time;durP1;ratioP1;P1;durP2;ratioP2;P2;SDS_P1;SDS_P2;PMS_P1;PMS_P2;Temp;Humidity;BMP_temperature;BMP_pressure;BME280_temperature;BME280_humidity;BME280_pressure;Samples;Min_cycle;Max_cycle;Signal;HPM_P1;HPM_P2
2022/06/06 00:01:34;;;;;;;22.10;19.23;;;21.10;91.20;;;;;;4976107;28;20019;-68
2022/06/06 00:04:00;;;;;;;31.65;24.55;;;21.10;91.30;;;;;;4992922;28;20466;-68
2022/06/06 00:06:26;;;;;;;35.40;25.13;;;21.10;91.20;;;;;;4992978;28;20062;-67
2022/06/06 00:08:51;;;;;;;27.55;21.40;;;21.00;91.20;;;;;;4993412;28;20026;-67
2022/06/06 00:11:17;;;;;;;32.13;25.55;;;21.00;91.20;;;;;;4993301;28;20057;-67
2022/06/06 00:13:46;;;;;;;34.83;26.73;;;21.00;91.20;;;;;;4975715;28;20029;-67
2022/06/06 00:16:11;;;;;;;27.75;22.38;;;21.00;91.50;;;;;;4993222;28;20027;-67
2022/06/06 00:18:38;;;;;;;30.63;24.42;;;21.00;91.20;;;;;;4993384;28;20088;-68
2022/06/06 00:21:07;;;;;;;23.35;19.30;;;21.00;91.30;;;;;;4993354;28;20034;-67
2022/06/06 00:23:33;;;;;;;33.85;27.58;;;21.00;91.30;;;;;;4993101;28;20026;-68
2022/06/06 00:25:59;;;;;;;33.50;25.63;;;21.00;91.20;;;;;;4992964;28;20038;-67
2022/06/06 00:28:24;;;;;;;33.85;25.83;;;20.90;91.10;;;;;;4997031;28;20018;-67
2022/06/06 00:34:48;;;;;;;21.92;18.63;;;20.90;91.10;;;;;;4996732;28;20026;-67
2022/06/06 00:36:31;;;;;;;26.95;21.52;;;21.00;91.20;;;;;;4996802;28;20045;-67
2022/06/06 00:38:57;;;;;;;29.75;24.70;;;20.90;91.20;;;;;;4996754;28;20026;-67
2022/06/06 00:41:22;;;;;;;23.67;19.42;;;20.90;91.10;;;;;;4996559;28;20484;-67
2022/06/06 00:44:02;;;;;;;25.17;21.40;;;20.90;91.10;;;;;;4996696;28;20026;-67
2022/06/06 00:46:28;;;;;;;27.85;21.55;;;20.90;91.00;;;;;;4996526;28;20034;-69
2022/06/06 00:48:54;;;;;;;25.92;21.98;;;20.80;91.00;;;;;;4996711;28;20033;-68
2022/06/06 00:51:19;;;;;;;19.20;16.60;;;20.90;91.10;;;;;;4996596;28;20030;-68
2022/06/06 00:53:55;;;;;;;23.25;18.48;;;20.90;91.20;;;;;;4996244;28;20106;-67
2022/06/06 00:56:28;;;;;;;22.42;18.92;;;20.90;91.20;;;;;;4996477;28;20038;-68
2022/06/06 00:59:03;;;;;;;21.63;18.35;;;20.90;91.10;;;;;;4996583;28;20033;-68
2022/06/06 01:01:31;;;;;;;24.17;20.60;;;20.90;91.10;;;;;;4978721;28;20026;-68
2022/06/06 01:03:59;;;;;;;24.10;19.40;;;20.90;91.00;;;;;;4996491;28;20054;-68
2022/06/06 01:06:29;;;;;;;24.05;19.85;;;20.90;91.00;;;;;;4995620;28;20133;-67
2022/06/06 01:08:58;;;;;;;24.65;20.58;;;20.80;90.90;;;;;;4996220;28;20031;-67
2022/06/06 01:11:23;;;;;;;18.73;16.45;;;20.90;91.20;;;;;;4996134;28;20027;-67
2022/06/06 01:13:49;;;;;;;20.55;17.27;;;20.80;91.00;;;;;;4995931;28;20391;-67
2022/06/06 01:16:30;;;;;;;20.88;18.08;;;20.80;91.00;;;;;;4995567;28;20452;-67
2022/06/06 01:19:08;;;;;;;18.70;15.60;;;20.80;90.80;;;;;;4995771;28;20116;-68
2022/06/06 01:21:43;;;;;;;19.63;14.90;;;20.80;90.90;;;;;;4995955;28;20023;-68
2022/06/06 01:24:48;;;;;;;20.50;16.65;;;20.80;90.90;;;;;;4995856;28;20022;-68
2022/06/06 01:27:35;;;;;;;19.00;16.00;;;20.80;90.50;;;;;;4956334;28;20128;-68
2022/06/06 01:30:07;;;;;;;19.27;17.00;;;20.80;90.70;;;;;;4995941;28;20030;-67
2022/06/06 01:32:43;;;;;;;20.58;15.93;;;20.80;90.90;;;;;;4995750;28;20376;-67
2022/06/06 01:35:09;;;;;;;19.85;17.13;;;20.70;90.70;;;;;;4995833;28;20027;-67
2022/06/06 01:37:43;;;;;;;19.75;16.65;;;20.70;90.40;;;;;;4994893;28;20025;-68
2022/06/06 01:40:12;;;;;;;20.27;16.02;;;20.70;90.40;;;;;;4995650;28;20050;-67
2022/06/06 01:43:00;;;;;;;19.27;16.40;;;20.70;90.20;;;;;;4995644;28;20027;-68
2022/06/06 01:45:29;;;;;;;19.85;15.73;;;20.60;89.90;;;;;;4995599;28;20467;-69
2022/06/06 01:48:08;;;;;;;20.45;16.60;;;20.60;89.50;;;;;;4995544;28;20100;-70
2022/06/06 01:50:39;;;;;;;19.13;16.10;;;20.60;89.30;;;;;;4995277;28;20093;-69
2022/06/06 01:53:08;;;;;;;24.45;16.75;;;20.60;89.20;;;;;;4977819;28;20023;-71
2022/06/06 01:55:39;;;;;;;21.10;15.50;;;20.60;89.10;;;;;;4995449;28;20027;-69
2022/06/06 01:58:10;;;;;;;19.75;16.25;;;20.50;88.70;;;;;;4995242;28;20023;-70
2022/06/06 02:00:38;;;;;;;18.95;14.68;;;20.50;88.60;;;;;;4995239;28;20018;-67
2022/06/06 02:03:04;;;;;;;17.73;13.73;;;20.50;89.00;;;;;;4995160;28;20030;-68
2022/06/06 02:05:30;;;;;;;18.40;13.38;;;20.50;88.80;;;;;;4994927;28;20035;-67
2022/06/06 02:07:57;;;;;;;15.25;12.80;;;20.50;89.10;;;;;;4994585;28;20109;-67
2022/06/06 02:10:23;;;;;;;15.73;13.23;;;20.50;89.60;;;;;;4995157;28;20030;-67
2022/06/06 02:12:49;;;;;;;18.83;13.70;;;20.40;88.70;;;;;;4994860;28;20502;-67
2022/06/06 02:15:18;;;;;;;17.17;13.85;;;20.40;88.10;;;;;;4994670;28;20030;-67
2022/06/06 02:17:44;;;;;;;17.65;13.65;;;20.40;87.70;;;;;;4994992;28;20077;-68
2022/06/06 02:20:12;;;;;;;17.50;13.38;;;20.40;87.30;;;;;;4994865;28;20025;-67
2022/06/06 02:22:37;;;;;;;19.25;14.73;;;20.30;87.20;;;;;;4994419;28;20117;-68
2022/06/06 02:25:06;;;;;;;18.48;14.80;;;20.30;87.40;;;;;;4994747;28;20122;-68
2022/06/06 02:27:33;;;;;;;19.33;14.18;;;20.30;87.50;;;;;;4994832;28;20065;-67
2022/06/06 02:29:59;;;;;;;19.95;15.02;;;20.20;87.60;;;;;;4994809;28;20095;-69
2022/06/06 02:32:24;;;;;;;20.10;14.98;;;20.20;88.10;;;;;;4996488;28;20054;-67
2022/06/06 02:34:50;;;;;;;19.00;15.48;;;20.20;87.50;;;;;;5010010;28;20025;-68
2022/06/06 02:37:15;;;;;;;22.33;16.23;;;20.20;87.70;;;;;;5013485;28;20037;-68
2022/06/06 02:39:41;;;;;;;18.88;15.18;;;20.10;87.80;;;;;;5013230;28;20034;-68
2022/06/06 02:42:07;;;;;;;18.50;15.88;;;20.10;88.10;;;;;;5013762;28;20475;-68
2022/06/06 02:44:33;;;;;;;16.08;14.20;;;20.10;88.30;;;;;;4996319;28;20083;-67
2022/06/06 02:46:59;;;;;;;20.67;13.65;;;20.10;88.20;;;;;;5013804;28;20057;-67
2022/06/06 02:49:24;;;;;;;20.85;15.02;;;20.10;88.20;;;;;;5012839;28;20460;-68
2022/06/06 02:51:50;;;;;;;14.73;12.75;;;20.10;87.90;;;;;;5013819;28;20030;-67
2022/06/06 02:54:15;;;;;;;14.48;11.90;;;20.10;88.20;;;;;;5013691;28;20026;-67
2022/06/06 02:56:41;;;;;;;16.02;12.82;;;20.10;88.10;;;;;;5013891;28;20029;-67
2022/06/06 02:59:08;;;;;;;16.77;13.38;;;20.00;87.70;;;;;;4995799;28;20022;-68
2022/06/06 03:01:34;;;;;;;14.68;12.00;;;20.00;87.50;;;;;;5013720;28;20104;-69
2022/06/06 03:04:00;;;;;;;19.92;12.95;;;20.00;87.70;;;;;;5013405;28;20041;-69
2022/06/06 03:06:55;;;;;;;16.27;12.98;;;20.00;87.60;;;;;;5013554;28;20037;-68
2022/06/06 03:09:42;;;;;;;15.68;12.35;;;19.90;87.40;;;;;;5013061;28;20028;-69
2022/06/06 03:12:17;;;;;;;14.25;11.65;;;19.90;87.40;;;;;;5013560;28;20041;-70
2022/06/06 03:15:00;;;;;;;14.52;10.70;;;19.90;87.60;;;;;;5013388;28;20022;-70
2022/06/06 03:21:33;;;;;;;11.38;8.88;;;19.90;87.80;;;;;;5013743;28;20095;-68
2022/06/06 03:24:04;;;;;;;15.00;9.55;;;19.90;88.70;;;;;;4959119;28;20044;-69
2022/06/06 03:27:06;;;;;;;14.63;9.77;;;19.90;88.30;;;;;;5013239;28;20084;-70
2022/06/06 03:29:50;;;;;;;12.15;9.95;;;19.80;87.00;;;;;;5013440;28;20049;-69
2022/06/06 03:32:24;;;;;;;13.32;9.23;;;19.80;86.80;;;;;;5013372;28;20026;-69
2022/06/06 03:35:25;;;;;;;12.35;9.00;;;19.80;87.20;;;;;;5012251;28;20532;-70
2022/06/06 03:37:54;;;;;;;9.70;8.35;;;19.70;87.10;;;;;;5013584;28;20038;-69
2022/06/06 03:40:19;;;;;;;13.18;8.30;;;19.70;86.80;;;;;;5013258;28;20025;-69
2022/06/06 03:42:53;;;;;;;13.73;8.65;;;19.70;87.00;;;;;;5013217;28;20026;-70
2022/06/06 03:45:18;;;;;;;12.40;8.23;;;19.60;86.70;;;;;;5012947;28;20026;-70
2022/06/06 03:47:53;;;;;;;11.45;8.18;;;19.60;86.70;;;;;;5012892;28;20026;-69
2022/06/06 03:50:29;;;;;;;11.23;8.70;;;19.60;86.80;;;;;;4995627;28;20037;-67
2022/06/06 03:53:20;;;;;;;10.45;7.90;;;19.60;86.90;;;;;;5012888;28;20029;-70
2022/06/06 03:55:57;;;;;;;11.68;7.55;;;19.60;86.70;;;;;;4968800;28;20442;-68
2022/06/06 03:58:28;;;;;;;9.70;7.70;;;19.50;86.60;;;;;;5013249;28;20026;-68
2022/06/06 04:00:57;;;;;;;8.90;6.90;;;19.50;86.60;;;;;;5014486;28;20018;-69
2022/06/06 04:03:24;;;;;;;11.32;6.65;;;19.50;86.60;;;;;;5016230;28;20442;-67
2022/06/06 04:05:51;;;;;;;7.82;6.90;;;19.50;86.60;;;;;;5016856;28;20141;-67
2022/06/06 04:08:16;;;;;;;9.85;7.00;;;19.40;86.60;;;;;;5017076;28;20474;-67
2022/06/06 04:10:55;;;;;;;8.70;6.65;;;19.40;86.50;;;;;;5016806;28;20058;-68
2022/06/06 04:13:57;;;;;;;8.35;5.93;;;19.40;86.30;;;;;;5016604;28;20062;-69
2022/06/06 04:16:28;;;;;;;7.00;5.28;;;19.40;86.30;;;;;;5016611;28;20076;-69
2022/06/06 04:19:35;;;;;;;8.18;5.95;;;19.40;86.50;;;;;;5016685;28;20018;-68
2022/06/06 04:22:18;;;;;;;11.20;4.70;;;19.40;86.50;;;;;;5016690;28;20021;-70
2022/06/06 04:24:43;;;;;;;9.00;5.28;;;19.30;86.50;;;;;;5016237;28;20030;-70
2022/06/06 04:27:29;;;;;;;7.70;4.70;;;19.30;86.50;;;;;;5016678;28;20038;-69
2022/06/06 04:30:06;;;;;;;7.22;4.65;;;19.30;86.50;;;;;;4998955;28;20037;-68
2022/06/06 04:32:58;;;;;;;6.95;4.03;;;19.30;86.90;;;;;;4998393;28;20117;-68
2022/06/06 04:35:32;;;;;;;7.88;4.03;;;19.40;87.50;;;;;;5007014;28;20073;-69
2022/06/06 04:38:11;;;;;;;7.05;3.10;;;19.30;87.20;;;;;;5011630;28;20041;-69
2022/06/06 04:41:07;;;;;;;5.13;3.42;;;19.30;87.20;;;;;;5015987;28;20026;-68
2022/06/06 04:43:43;;;;;;;5.72;3.03;;;19.40;87.70;;;;;;5015752;28;20054;-69
2022/06/06 04:46:47;;;;;;;5.00;3.17;;;19.40;87.20;;;;;;4993855;28;20034;-68
2022/06/06 04:49:13;;;;;;;4.78;2.97;;;19.40;87.00;;;;;;4996380;28;20030;-68
2022/06/06 04:51:42;;;;;;;7.07;3.03;;;19.40;87.20;;;;;;4996185;28;20026;-68
2022/06/06 04:54:13;;;;;;;6.78;2.97;;;19.30;87.80;;;;;;4996661;28;20521;-69
2022/06/06 04:56:39;;;;;;;3.95;2.95;;;19.30;87.40;;;;;;5015508;28;20034;-68
2022/06/06 04:59:09;;;;;;;5.15;3.13;;;19.30;87.40;;;;;;5012019;28;20033;-68
2022/06/06 05:01:36;;;;;;;4.75;2.10;;;19.30;87.40;;;;;;5014512;28;20257;-68
2022/06/06 05:04:02;;;;;;;3.47;2.53;;;19.30;87.90;;;;;;5034787;28;20053;-69
2022/06/06 05:06:52;;;;;;;6.10;2.70;;;19.30;87.70;;;;;;5024827;28;20127;-67
2022/06/06 05:09:23;;;;;;;6.72;3.65;;;19.30;87.70;;;;;;5014445;28;20168;-67
2022/06/06 05:11:55;;;;;;;6.37;2.67;;;19.30;87.00;;;;;;5014320;28;20058;-66
2022/06/06 05:14:27;;;;;;;4.95;3.10;;;19.30;87.00;;;;;;5014846;28;20053;-70
2022/06/06 05:17:30;;;;;;;5.53;3.22;;;19.30;87.30;;;;;;5013960;28;20026;-67
2022/06/06 05:20:29;;;;;;;8.30;3.17;;;19.30;87.40;;;;;;4996412;28;20037;-67
2022/06/06 05:23:17;;;;;;;6.47;3.10;;;19.30;87.70;;;;;;4998310;28;20034;-66
2022/06/06 05:25:42;;;;;;;13.77;2.92;;;19.30;89.30;;;;;;5013505;28;20042;-66
2022/06/06 05:28:36;;;;;;;7.60;2.72;;;19.30;89.50;;;;;;5015245;28;20029;-68
2022/06/06 05:31:14;;;;;;;5.18;2.17;;;19.30;89.40;;;;;;5005800;28;20033;-65
2022/06/06 05:33:57;;;;;;;5.32;2.67;;;19.30;90.00;;;;;;5015054;28;20041;-65
2022/06/06 05:36:43;;;;;;;9.05;2.45;;;19.40;90.00;;;;;;5015292;28;20038;-66
2022/06/06 05:39:31;;;;;;;10.57;3.65;;;19.40;90.10;;;;;;5014309;28;20475;-67
2022/06/06 05:42:06;;;;;;;9.43;2.28;;;19.40;90.20;;;;;;5014113;28;20069;-64
2022/06/06 05:45:09;;;;;;;8.40;2.72;;;19.50;90.20;;;;;;5013942;28;20033;-64
2022/06/06 05:47:35;;;;;;;;;;;19.50;90.10;;;;;;4994966;28;20406;-68
2022/06/06 05:50:03;;;;;;;10.20;2.47;;;19.50;89.80;;;;;;5011861;28;20001;-69
2022/06/06 05:52:36;;;;;;;4.65;1.65;;;19.50;90.20;;;;;;5014320;28;20046;-69
2022/06/06 05:55:04;;;;;;;4.97;1.57;;;19.50;90.10;;;;;;5014703;28;20033;-68
2022/06/06 05:57:48;;;;;;;5.95;1.70;;;19.60;90.00;;;;;;4997364;28;20030;-69
2022/06/06 06:00:23;;;;;;;3.08;1.30;;;19.60;89.80;;;;;;5014754;28;20022;-69
2022/06/06 06:03:19;;;;;;;6.13;1.88;;;19.70;89.70;;;;;;5014661;28;20128;-70
2022/06/06 06:06:30;;;;;;;3.95;1.40;;;19.70;88.90;;;;;;5014254;28;20126;-68
2022/06/06 06:09:38;;;;;;;4.82;1.70;;;19.80;88.70;;;;;;5010802;28;20509;-69
2022/06/06 06:12:07;;;;;;;4.90;1.80;;;19.80;88.10;;;;;;5014621;28;20121;-68
2022/06/06 06:15:01;;;;;;;4.60;1.35;;;19.90;88.60;;;;;;5013690;28;20109;-69
2022/06/06 06:17:28;;;;;;;1.85;1.17;;;20.00;88.20;;;;;;5014632;28;20052;-69
2022/06/06 06:20:06;;;;;;;3.95;1.52;;;20.00;88.10;;;;;;5014834;28;20080;-69
2022/06/06 06:22:42;;;;;;;3.53;1.25;;;20.00;88.00;;;;;;5014385;28;20026;-68
2022/06/06 06:25:09;;;;;;;3.25;1.02;;;20.10;87.80;;;;;;5011513;28;20360;-68
2022/06/06 06:27:36;;;;;;;3.75;1.80;;;20.10;87.60;;;;;;5013189;28;20065;-70
2022/06/06 06:30:04;;;;;;;3.83;1.50;;;20.10;87.30;;;;;;5014452;28;20018;-69
2022/06/06 06:32:44;;;;;;;5.80;1.40;;;20.20;87.30;;;;;;5014363;28;20026;-68
2022/06/06 06:35:28;;;;;;;3.47;1.00;;;20.20;87.00;;;;;;5014208;28;20018;-70
2022/06/06 06:38:03;;;;;;;5.60;1.33;;;20.20;86.50;;;;;;5014168;28;20041;-69
2022/06/06 06:40:42;;;;;;;3.65;1.20;;;20.30;86.80;;;;;;4996297;28;20088;-68
2022/06/06 06:43:23;;;;;;;1.80;1.02;;;20.30;86.60;;;;;;5010661;28;20037;-69
2022/06/06 06:46:00;;;;;;;2.03;0.93;;;20.30;85.90;;;;;;4996239;28;20148;-68
2022/06/06 06:48:37;;;;;;;3.90;0.98;;;20.30;86.10;;;;;;5014146;28;20018;-68
2022/06/06 06:51:16;;;;;;;4.05;0.90;;;20.40;85.60;;;;;;5014061;28;20026;-67
2022/06/06 06:54:34;;;;;;;2.65;0.93;;;20.40;85.60;;;;;;5013845;28;20018;-67
2022/06/06 06:57:05;;;;;;;2.65;0.95;;;20.40;85.10;;;;;;4927013;28;20397;-67
2022/06/06 06:59:56;;;;;;;3.87;1.70;;;20.50;85.40;;;;;;5013623;28;20033;-67
2022/06/06 07:08:50;;;;;;;3.85;1.33;;;20.50;84.70;;;;;;5013386;28;20091;-68
2022/06/06 07:11:32;;;;;;;3.25;0.80;;;20.60;84.30;;;;;;5012807;28;20021;-70
2022/06/06 07:14:35;;;;;;;1.45;0.70;;;20.60;84.40;;;;;;5013045;28;20022;-68
2022/06/06 07:17:02;;;;;;;3.25;1.48;;;20.60;84.20;;;;;;5013225;28;20049;-67
2022/06/06 07:19:34;;;;;;;3.72;2.00;;;20.60;84.20;;;;;;5009206;28;20088;-67
2022/06/06 07:22:01;;;;;;;5.25;1.80;;;20.70;83.80;;;;;;5004766;28;20545;-67
2022/06/06 07:24:28;;;;;;;4.03;1.92;;;20.70;83.70;;;;;;5009192;28;20084;-67
2022/06/06 07:26:55;;;;;;;4.40;1.60;;;20.80;83.60;;;;;;4992942;28;20044;-66
2022/06/06 07:29:21;;;;;;;4.25;1.77;;;20.80;83.40;;;;;;5004574;28;20026;-66
2022/06/06 07:32:10;;;;;;;4.03;1.58;;;20.80;83.10;;;;;;4998305;28;20093;-66
2022/06/06 07:34:59;;;;;;;3.60;1.65;;;20.80;82.90;;;;;;4966311;28;20494;-67
2022/06/06 07:37:57;;;;;;;4.38;1.50;;;20.90;82.60;;;;;;4999355;28;20069;-68
2022/06/06 07:41:03;;;;;;;3.90;1.67;;;20.90;82.40;;;;;;4998319;28;20049;-67
2022/06/06 07:43:56;;;;;;;8.98;1.90;;;20.90;82.40;;;;;;5008195;28;20033;-67
2022/06/06 07:46:21;;;;;;;;;;;21.00;82.30;;;;;;5004160;28;20028;-67
2022/06/06 07:48:58;;;;;;;4.68;1.25;;;21.00;82.30;;;;;;4999248;28;19906;-68
2022/06/06 07:51:29;;;;;;;2.67;1.15;;;21.00;81.90;;;;;;5009377;28;20406;-67
2022/06/06 07:54:10;;;;;;;3.55;1.23;;;21.00;81.80;;;;;;5008797;28;20014;-67
2022/06/06 07:56:58;;;;;;;4.47;1.05;;;21.00;81.60;;;;;;5003568;28;20114;-67
2022/06/06 07:59:47;;;;;;;4.88;1.10;;;21.10;81.30;;;;;;5007918;28;20037;-66
2022/06/06 08:02:37;;;;;;;3.08;1.00;;;21.10;81.00;;;;;;4994379;28;20077;-66
2022/06/06 08:05:06;;;;;;;3.72;1.38;;;21.20;80.90;;;;;;4997582;28;20033;-66
2022/06/06 08:07:58;;;;;;;7.45;1.10;;;21.10;80.90;;;;;;5003929;28;20038;-68
2022/06/06 08:10:46;;;;;;;6.75;1.10;;;21.20;80.80;;;;;;5002002;28;20080;-67
2022/06/06 08:13:26;;;;;;;5.70;1.15;;;21.20;80.70;;;;;;5004861;28;20408;-68
2022/06/06 08:16:17;;;;;;;4.45;0.93;;;21.30;80.60;;;;;;5003351;28;20446;-66
2022/06/06 08:19:17;;;;;;;5.15;0.93;;;21.30;80.40;;;;;;5002562;28;20037;-64
2022/06/06 08:21:47;;;;;;;4.20;1.05;;;21.30;80.00;;;;;;4995229;28;20028;-66
2022/06/06 08:24:35;;;;;;;4.05;0.95;;;21.30;80.10;;;;;;5001818;28;20080;-70
2022/06/06 08:27:03;;;;;;;4.15;0.77;;;21.40;79.90;;;;;;4977677;28;20502;-67
2022/06/06 08:29:33;;;;;;;5.07;0.70;;;21.30;79.70;;;;;;5002002;28;20054;-66
2022/06/06 08:31:59;;;;;;;4.45;0.63;;;21.40;79.50;;;;;;5007231;28;20120;-65
2022/06/06 08:34:25;;;;;;;6.95;0.82;;;21.40;79.30;;;;;;5006408;28;20435;-65
2022/06/06 08:37:08;;;;;;;2.58;0.80;;;21.40;79.10;;;;;;5008503;28;20103;-67
2022/06/06 08:39:43;;;;;;;3.08;0.68;;;21.50;79.20;;;;;;5007435;28;20037;-67
2022/06/06 08:42:23;;;;;;;8.40;0.98;;;21.40;78.60;;;;;;5029010;28;20065;-67
2022/06/06 08:45:08;;;;;;;9.27;0.80;;;21.50;78.50;;;;;;4999702;28;20034;-68
2022/06/06 08:47:54;;;;;;;3.42;0.73;;;21.40;78.30;;;;;;5010280;28;20125;-67
2022/06/06 08:50:58;;;;;;;5.40;0.55;;;21.50;78.30;;;;;;5011806;28;20475;-76
2022/06/06 08:53:58;;;;;;;8.68;1.50;;;21.60;78.10;;;;;;4995514;28;20026;-66
2022/06/06 08:57:08;;;;;;;5.38;0.65;;;21.60;77.80;;;;;;5006507;28;20022;-70
2022/06/06 09:00:05;;;;;;;4.60;1.10;;;21.70;77.20;;;;;;4972426;28;20046;-71
2022/06/06 09:02:54;;;;;;;7.80;0.75;;;21.70;77.00;;;;;;4996148;28;20038;-71
2022/06/06 09:05:53;;;;;;;4.65;0.80;;;21.60;76.10;;;;;;5003661;28;20033;-69
2022/06/06 09:08:49;;;;;;;1.15;0.47;;;21.70;76.40;;;;;;5012079;28;20391;-70
2022/06/06 09:11:29;;;;;;;3.50;0.45;;;21.70;76.30;;;;;;5002000;28;20037;-67
2022/06/06 09:14:37;;;;;;;2.10;0.63;;;21.60;76.40;;;;;;5006857;28;20030;-67
2022/06/06 09:17:54;;;;;;;5.00;1.00;;;21.60;76.60;;;;;;4982924;28;20441;-68
2022/06/06 09:20:41;;;;;;;2.95;0.63;;;21.70;76.90;;;;;;4962607;28;20065;-67
2022/06/06 09:23:36;;;;;;;4.35;0.88;;;21.70;77.00;;;;;;5001702;28;20038;-66
2022/06/06 09:26:23;;;;;;;5.80;0.93;;;21.70;77.20;;;;;;5003267;28;20033;-67
2022/06/06 09:29:22;;;;;;;10.52;1.33;;;21.80;77.40;;;;;;5007347;28;20034;-67
2022/06/06 09:32:13;;;;;;;12.68;1.10;;;21.80;77.70;;;;;;4990019;28;20117;-69
2022/06/06 09:35:24;;;;;;;5.45;1.05;;;21.80;78.20;;;;;;5009290;28;20034;-66
2022/06/06 09:37:59;;;;;;;12.88;1.58;;;21.80;78.30;;;;;;4985225;28;20033;-68
2022/06/06 09:41:07;;;;;;;7.38;0.90;;;21.90;78.30;;;;;;4999898;28;20118;-67
2022/06/06 09:43:59;;;;;;;5.85;0.80;;;21.90;78.10;;;;;;5011109;28;20034;-68
2022/06/06 09:47:02;;;;;;;3.40;0.70;;;21.90;77.60;;;;;;4998735;28;20538;-68
2022/06/06 09:49:55;;;;;;;4.68;0.90;;;22.00;77.10;;;;;;4984388;28;20042;-73
2022/06/06 09:52:39;;;;;;;5.38;0.98;;;21.90;76.80;;;;;;5006002;28;20041;-64
2022/06/06 09:59:20;;;;;;;6.43;1.25;;;21.90;76.80;;;;;;4924396;29;20170;-67
2022/06/06 10:01:54;;;;;;;2.83;0.50;;;21.90;76.70;;;;;;5008059;28;20042;-68
2022/06/06 10:04:54;;;;;;;3.58;0.57;;;22.00;76.20;;;;;;5008765;28;20080;-65
2022/06/06 10:07:23;;;;;;;2.20;0.63;;;21.90;75.90;;;;;;5005559;28;20104;-68
2022/06/06 10:10:26;;;;;;;5.57;1.25;;;22.00;75.90;;;;;;5005321;28;20061;-66
2022/06/06 10:12:52;;;;;;;2.80;0.73;;;22.00;75.80;;;;;;5005501;28;20042;-67
2022/06/06 10:15:26;;;;;;;4.10;0.90;;;22.00;75.40;;;;;;5001197;28;20080;-64
2022/06/06 10:18:10;;;;;;;5.60;0.68;;;22.00;76.10;;;;;;5007615;28;20025;-67
2022/06/06 10:20:57;;;;;;;3.15;0.50;;;22.00;75.40;;;;;;5002843;28;20105;-66
2022/06/06 10:23:35;;;;;;;5.70;0.55;;;22.10;75.40;;;;;;5005375;28;20064;-66
2022/06/06 10:26:39;;;;;;;2.90;0.50;;;22.00;75.30;;;;;;5007868;28;20111;-64
2022/06/06 10:29:20;;;;;;;1.10;0.50;;;22.00;75.00;;;;;;4978535;28;20045;-65
2022/06/06 10:32:27;;;;;;;4.00;0.70;;;22.00;74.50;;;;;;5004435;28;20030;-64
2022/06/06 10:35:06;;;;;;;1.70;0.45;;;22.00;73.70;;;;;;4926416;28;20448;-63
2022/06/06 10:37:58;;;;;;;2.13;0.45;;;22.10;73.10;;;;;;4928434;29;20063;-69
2022/06/06 10:40:56;;;;;;;1.25;0.45;;;22.10;73.90;;;;;;4983181;28;20565;-64
2022/06/06 10:43:31;;;;;;;2.78;0.57;;;22.10;73.50;;;;;;5012346;28;20070;-63
2022/06/06 10:46:11;;;;;;;3.08;1.00;;;22.10;75.80;;;;;;5006579;28;20534;-65
2022/06/06 10:48:45;;;;;;;3.10;1.27;;;22.10;79.20;;;;;;5005498;28;20044;-65
2022/06/06 10:51:48;;;;;;;3.13;1.45;;;22.20;84.30;;;;;;5006946;28;20029;-66
2022/06/06 10:54:39;;;;;;;2.72;1.50;;;22.20;84.10;;;;;;5005616;28;20574;-68
2022/06/06 10:57:37;;;;;;;5.35;1.33;;;22.20;83.80;;;;;;4996073;28;20033;-64
2022/06/06 11:00:13;;;;;;;4.80;1.02;;;22.30;79.20;;;;;;5007962;28;20034;-64
2022/06/06 11:03:08;;;;;;;4.97;1.38;;;22.20;79.40;;;;;;4988097;28;20426;-64
2022/06/06 11:06:11;;;;;;;16.90;5.93;;;22.20;79.70;;;;;;4970994;28;20033;-70
2022/06/06 11:09:21;;;;;;;8.27;4.10;;;22.20;83.80;;;;;;4997550;28;20121;-67
2022/06/06 11:12:01;;;;;;;6.10;2.88;;;22.20;82.10;;;;;;5005771;28;20036;-62
2022/06/06 11:14:31;;;;;;;6.85;2.83;;;22.30;81.30;;;;;;4977263;28;20121;-69
2022/06/06 11:17:34;;;;;;;9.45;3.35;;;22.20;81.40;;;;;;5009712;28;20482;-70
2022/06/06 11:20:32;;;;;;;5.78;2.65;;;22.30;81.80;;;;;;4985231;28;20092;-70
2022/06/06 11:23:19;;;;;;;4.53;1.60;;;22.30;81.40;;;;;;5004595;28;20104;-71
2022/06/06 11:26:03;;;;;;;9.60;2.78;;;22.40;81.20;;;;;;5002860;28;20030;-68
2022/06/06 11:28:44;;;;;;;6.60;2.60;;;22.40;81.20;;;;;;4999857;28;20035;-66
2022/06/06 11:31:43;;;;;;;5.85;2.03;;;22.30;81.10;;;;;;5003765;28;20069;-67
2022/06/06 11:34:30;;;;;;;4.68;1.70;;;22.40;80.40;;;;;;5006365;28;20550;-67
2022/06/06 11:37:17;;;;;;;5.93;1.45;;;22.40;80.70;;;;;;5005372;28;20026;-66
2022/06/06 11:40:41;;;;;;;6.63;1.20;;;22.40;80.60;;;;;;5002292;28;20038;-67
2022/06/06 11:43:36;;;;;;;4.85;1.70;;;22.40;80.40;;;;;;4999891;28;20065;-67
2022/06/06 11:46:10;;;;;;;3.67;1.33;;;22.40;80.30;;;;;;5008191;28;20076;-67
2022/06/06 11:48:45;;;;;;;4.57;1.30;;;22.40;80.40;;;;;;5009377;28;20026;-67
2022/06/06 11:51:42;;;;;;;4.32;1.27;;;22.40;80.40;;;;;;5007917;28;20033;-67
2022/06/06 11:54:30;;;;;;;3.28;1.10;;;22.40;79.90;;;;;;5009933;28;20033;-67
2022/06/06 11:57:12;;;;;;;4.20;0.80;;;22.40;79.80;;;;;;5004290;28;20034;-66
2022/06/06 11:59:56;;;;;;;4.30;0.80;;;22.40;79.70;;;;;;5000786;28;20053;-64
2022/06/06 12:02:50;;;;;;;2.75;0.95;;;22.40;79.90;;;;;;5006008;28;20034;-63
2022/06/06 12:05:41;;;;;;;4.03;0.98;;;22.40;79.80;;;;;;5005624;28;20026;-67
2022/06/06 12:08:35;;;;;;;3.22;0.73;;;22.40;79.80;;;;;;5007987;28;20041;-64
2022/06/06 12:11:06;;;;;;;3.47;0.70;;;22.40;79.70;;;;;;4997958;28;20517;-68
2022/06/06 12:13:57;;;;;;;6.80;0.68;;;22.40;79.00;;;;;;5013009;28;20132;-65
2022/06/06 12:16:28;;;;;;;7.72;0.77;;;22.40;78.60;;;;;;5004549;28;20061;-64
2022/06/06 12:19:21;;;;;;;2.97;0.63;;;22.40;77.40;;;;;;5009336;28;20025;-66
2022/06/06 12:22:26;;;;;;;3.13;0.80;;;22.40;75.10;;;;;;5011380;28;20030;-67
2022/06/06 12:25:03;;;;;;;2.30;0.50;;;22.40;74.20;;;;;;5009236;28;20107;-65
2022/06/06 12:27:54;;;;;;;1.48;0.40;;;22.30;72.50;;;;;;5009393;28;20072;-66
2022/06/06 12:30:41;;;;;;;1.88;0.50;;;22.40;72.60;;;;;;5005369;28;20436;-67
2022/06/06 12:33:14;;;;;;;2.75;0.95;;;22.40;73.00;;;;;;5012368;28;20044;-67
2022/06/06 12:36:14;;;;;;;3.05;0.50;;;22.40;75.10;;;;;;5012047;28;20029;-67
2022/06/06 12:38:53;;;;;;;2.33;0.50;;;22.40;75.70;;;;;;5009110;28;20034;-67
2022/06/06 12:41:49;;;;;;;3.03;0.60;;;22.40;76.20;;;;;;5007090;28;20514;-67
2022/06/06 12:44:48;;;;;;;2.95;0.63;;;22.40;76.60;;;;;;5008210;28;20026;-66
2022/06/06 12:48:02;;;;;;;3.60;1.00;;;22.40;76.40;;;;;;4998812;28;20088;-65
2022/06/06 12:51:02;;;;;;;2.92;0.50;;;22.40;77.10;;;;;;4991986;28;20046;-67
2022/06/06 12:53:44;;;;;;;5.72;0.63;;;22.40;76.00;;;;;;5002585;28;20038;-67
2022/06/06 12:56:38;;;;;;;2.45;0.38;;;22.40;76.10;;;;;;5013363;28;20057;-67
2022/06/06 12:59:22;;;;;;;3.25;0.40;;;22.40;75.50;;;;;;4998807;28;20133;-67
2022/06/06 13:02:11;;;;;;;2.90;0.70;;;22.40;76.70;;;;;;5010297;28;20021;-67
2022/06/06 13:04:52;;;;;;;7.35;0.88;;;22.40;76.30;;;;;;5012533;28;20030;-65
2022/06/06 13:07:55;;;;;;;3.65;0.90;;;22.40;75.00;;;;;;5004724;28;20033;-65
2022/06/06 13:10:27;;;;;;;2.22;0.40;;;22.40;76.50;;;;;;5009734;28;20638;-67
2022/06/06 13:13:05;;;;;;;3.60;0.80;;;22.40;76.90;;;;;;5010889;28;20497;-66
2022/06/06 13:15:54;;;;;;;2.70;0.50;;;22.40;77.20;;;;;;5011004;28;20109;-67
2022/06/06 13:18:44;;;;;;;4.63;0.52;;;22.50;78.20;;;;;;5009631;28;20038;-67
2022/06/06 13:21:47;;;;;;;2.38;0.32;;;22.40;74.20;;;;;;4999653;28;20030;-66
2022/06/06 13:24:16;;;;;;;8.90;0.40;;;22.40;77.70;;;;;;5008887;28;20026;-66
2022/06/06 13:26:47;;;;;;;2.28;0.57;;;22.40;79.20;;;;;;5010793;28;20282;-66
2022/06/06 13:29:34;;;;;;;3.65;0.80;;;22.40;74.50;;;;;;5010154;28;20116;-66
2022/06/06 13:32:13;;;;;;;3.30;0.70;;;22.40;73.60;;;;;;5008224;28;20025;-67
2022/06/06 13:35:07;;;;;;;1.42;0.50;;;22.40;77.50;;;;;;5000611;28;20525;-65
2022/06/06 13:38:12;;;;;;;3.90;1.00;;;22.40;78.30;;;;;;5002325;28;20056;-65
2022/06/06 13:40:47;;;;;;;5.20;0.70;;;22.40;74.80;;;;;;5009666;28;20030;-66
2022/06/06 13:43:25;;;;;;;2.70;0.98;;;22.40;74.00;;;;;;4997918;28;20055;-65
2022/06/06 13:46:01;;;;;;;3.50;0.73;;;22.40;74.60;;;;;;5003004;28;20038;-64
2022/06/06 13:48:34;;;;;;;4.72;0.73;;;22.40;75.10;;;;;;5011960;28;20127;-64
2022/06/06 13:51:19;;;;;;;2.03;0.63;;;22.40;75.40;;;;;;5002886;28;20475;-64
2022/06/06 13:54:01;;;;;;;4.32;0.77;;;22.40;76.80;;;;;;5009703;28;20072;-62
2022/06/06 13:56:48;;;;;;;2.63;0.85;;;22.40;78.10;;;;;;5011001;28;20475;-64
2022/06/06 13:59:25;;;;;;;5.50;0.60;;;22.40;76.00;;;;;;5012196;28;20057;-67
2022/06/06 14:02:01;;;;;;;5.47;0.63;;;22.40;74.70;;;;;;5007474;28;20036;-67
2022/06/06 14:04:51;;;;;;;7.50;0.90;;;22.40;75.60;;;;;;5008757;28;20479;-63
2022/06/06 14:07:38;;;;;;;5.00;1.08;;;22.30;77.20;;;;;;4997246;28;20109;-66